Time;durP1;ratioP1;P1;durP2;ratioP2;P2;SDS_P1;SDS_P2;PMS_P1;PMS_P2;Temp;Humidity;BMP_temperature;BMP_pressure;BME280_temperature;BME280_humidity;BME280_pressure;Samples;Min_cycle;Max_cycle;Signal;HPM_P1;HPM_P2
2022/04/14 00:00:33;;;;;;;15.10;9.03;;;9.30;53.80;;;;;;5065614;28;46288;-63
2022/04/14 00:02:59;;;;;;;16.57;9.90;;;9.30;52.90;;;;;;5063985;28;47808;-64
2022/04/14 00:05:25;;;;;;;25.80;10.90;;;9.10;52.90;;;;;;5065121;28;46481;-64
2022/04/14 00:07:50;;;;;;;14.83;10.17;;;9.20;53.40;;;;;;5065315;28;46413;-63
2022/04/14 00:10:16;;;;;;;20.40;10.93;;;9.20;53.60;;;;;;5065564;28;46591;-64
2022/04/14 00:12:43;;;;;;;22.67;11.83;;;9.20;53.70;;;;;;5065338;28;49050;-64
2022/04/14 00:15:11;;;;;;;21.60;10.57;;;9.20;53.80;;;;;;5064813;28;46278;-64
2022/04/14 00:17:37;;;;;;;14.73;9.87;;;9.20;53.90;;;;;;5063244;28;46623;-64
2022/04/14 00:20:08;;;;;;;13.67;8.60;;;9.20;54.20;;;;;;5065427;28;46434;-63
2022/04/14 00:22:34;;;;;;;18.63;9.90;;;9.10;55.60;;;;;;5064959;28;48781;-63
2022/04/14 00:25:00;;;;;;;14.20;9.73;;;9.00;54.90;;;;;;5081259;28;46412;-64
2022/04/14 00:27:26;;;;;;;17.67;10.40;;;8.80;55.10;;;;;;5081976;28;46388;-65
2022/04/14 00:29:52;;;;;;;20.70;10.63;;;8.70;55.40;;;;;;5057814;28;46636;-64
2022/04/14 00:32:18;;;;;;;15.00;9.47;;;8.60;55.70;;;;;;5064558;28;48766;-64
2022/04/14 00:34:43;;;;;;;14.10;9.50;;;8.60;56.10;;;;;;5083541;28;46406;-64
2022/04/14 00:37:10;;;;;;;13.70;9.10;;;8.50;56.20;;;;;;5064877;28;46745;-63
2022/04/14 00:39:37;;;;;;;16.67;10.03;;;8.50;56.30;;;;;;5064431;28;45952;-63
2022/04/14 00:42:13;;;;;;;16.40;10.93;;;8.50;56.20;;;;;;5056382;28;46393;-63
2022/04/14 00:44:39;;;;;;;22.53;12.50;;;8.60;56.20;;;;;;5064937;28;46530;-62
2022/04/14 00:47:06;;;;;;;20.50;12.10;;;8.60;56.00;;;;;;5063157;28;46377;-63
2022/04/14 00:49:33;;;;;;;22.50;12.70;;;8.60;55.80;;;;;;5057433;28;46493;-62
2022/04/14 00:52:00;;;;;;;22.30;13.60;;;8.70;55.90;;;;;;5063411;28;49072;-62
2022/04/14 00:54:28;;;;;;;18.20;12.33;;;8.70;55.90;;;;;;5057055;28;46270;-63
2022/04/14 00:56:56;;;;;;;21.23;11.30;;;8.70;55.80;;;;;;5055257;28;46401;-62
2022/04/14 00:59:22;;;;;;;22.23;9.50;;;8.70;55.80;;;;;;5064766;28;46548;-63
2022/04/14 01:01:47;;;;;;;20.10;10.60;;;8.60;56.10;;;;;;5082449;28;47120;-62
2022/04/14 01:04:14;;;;;;;23.20;9.27;;;8.50;56.20;;;;;;5053660;28;46367;-64
2022/04/14 01:06:40;;;;;;;15.93;9.30;;;8.40;56.30;;;;;;5049845;28;46447;-63
2022/04/14 01:09:18;;;;;;;18.40;9.80;;;8.40;56.40;;;;;;5064389;28;46364;-63
2022/04/14 01:11:51;;;;;;;16.33;8.77;;;8.30;56.60;;;;;;5064609;28;48069;-62
2022/04/14 01:14:35;;;;;;;17.00;10.30;;;8.20;56.80;;;;;;5079848;28;46503;-63
2022/04/14 01:17:03;;;;;;;18.83;9.93;;;8.10;57.00;;;;;;5058606;28;46473;-62
2022/04/14 01:19:30;;;;;;;16.77;8.30;;;8.00;57.10;;;;;;5082847;28;46800;-63
2022/04/14 01:22:08;;;;;;;17.00;10.60;;;7.90;57.10;;;;;;5061356;28;46495;-63
2022/04/14 01:24:35;;;;;;;16.03;9.30;;;7.90;57.20;;;;;;5063493;28;46436;-61
2022/04/14 01:27:01;;;;;;;14.67;9.70;;;7.80;57.20;;;;;;5082229;28;46448;-63
2022/04/14 01:29:28;;;;;;;17.60;9.17;;;7.90;57.20;;;;;;5064114;28;46527;-64
2022/04/14 01:31:55;;;;;;;18.20;10.63;;;7.80;57.20;;;;;;5062262;28;48755;-61
2022/04/14 01:34:21;;;;;;;16.83;8.83;;;7.80;57.00;;;;;;5078595;28;46368;-63
2022/04/14 01:36:47;;;;;;;12.67;7.53;;;7.80;57.10;;;;;;5053794;28;46423;-63
2022/04/14 01:39:13;;;;;;;14.20;8.07;;;7.70;57.10;;;;;;5064297;28;46367;-63
2022/04/14 01:41:43;;;;;;;15.63;9.00;;;7.60;57.20;;;;;;5062436;28;47304;-62
2022/04/14 01:44:10;;;;;;;14.80;8.50;;;7.50;57.40;;;;;;5062634;28;46429;-63
2022/04/14 01:46:37;;;;;;;19.73;9.73;;;7.40;57.70;;;;;;5063363;28;46472;-63
2022/04/14 01:49:03;;;;;;;18.27;11.50;;;7.40;57.70;;;;;;5063687;28;46308;-63
2022/04/14 01:51:29;;;;;;;20.27;11.53;;;7.30;57.90;;;;;;5063559;28;48063;-64
2022/04/14 01:53:55;;;;;;;20.90;11.27;;;7.30;58.10;;;;;;5059639;28;46392;-63
2022/04/14 01:56:21;;;;;;;27.63;11.50;;;7.30;58.10;;;;;;5062539;28;46438;-63
2022/04/14 01:58:48;;;;;;;24.33;11.53;;;7.30;58.00;;;;;;5059941;28;46457;-63
2022/04/14 02:01:14;;;;;;;23.70;13.17;;;7.30;58.10;;;;;;5077199;28;46557;-62
2022/04/14 02:03:39;;;;;;;19.70;10.83;;;7.40;58.00;;;;;;5059622;28;46421;-63
2022/04/14 02:06:05;;;;;;;24.17;11.67;;;7.40;58.00;;;;;;5059253;28;45827;-62
2022/04/14 02:08:31;;;;;;;18.93;12.13;;;7.40;57.90;;;;;;5050182;28;46464;-64
2022/04/14 02:10:57;;;;;;;18.17;11.10;;;7.50;58.00;;;;;;5058446;28;46541;-65
2022/04/14 02:13:22;;;;;;;16.53;11.13;;;7.40;58.00;;;;;;5057461;28;46478;-64
2022/04/14 02:15:48;;;;;;;19.67;11.53;;;7.40;58.20;;;;;;5056651;28;46272;-62
2022/04/14 02:18:14;;;;;;;17.83;11.60;;;7.40;58.10;;;;;;5060709;28;46437;-63
2022/04/14 02:20:40;;;;;;;18.80;10.70;;;7.40;58.00;;;;;;5062130;28;47714;-64
2022/04/14 02:23:05;;;;;;;18.63;10.43;;;7.40;58.10;;;;;;5064238;28;46438;-63
2022/04/14 02:25:31;;;;;;;26.43;12.37;;;7.40;58.10;;;;;;5065981;28;46419;-63
2022/04/14 02:27:57;;;;;;;26.07;13.00;;;7.40;58.10;;;;;;5084883;28;46174;-65
2022/04/14 02:30:23;;;;;;;32.70;14.20;;;7.40;58.00;;;;;;5061089;28;46599;-64
2022/04/14 02:32:48;;;;;;;26.07;13.83;;;7.50;57.90;;;;;;5060801;28;46465;-62
2022/04/14 02:35:15;;;;;;;25.80;13.90;;;7.60;57.90;;;;;;5061812;28;46469;-64
2022/04/14 02:37:40;;;;;;;24.70;14.53;;;7.60;58.00;;;;;;5084887;28;46426;-63
2022/04/14 02:40:07;;;;;;;25.67;14.50;;;7.60;57.90;;;;;;5062614;28;46464;-63
2022/04/14 02:42:33;;;;;;;24.93;14.43;;;7.60;57.90;;;;;;5058514;28;46314;-63
2022/04/14 02:44:58;;;;;;;23.93;14.40;;;7.70;58.10;;;;;;5061270;28;46421;-63
2022/04/14 02:47:24;;;;;;;29.63;15.50;;;7.70;58.70;;;;;;5059347;28;46489;-63
2022/04/14 02:49:50;;;;;;;24.73;14.80;;;7.70;58.50;;;;;;5066607;28;47958;-63
2022/04/14 02:52:15;;;;;;;24.00;13.80;;;7.70;58.60;;;;;;5059139;28;46501;-63
2022/04/14 02:54:41;;;;;;;36.40;18.37;;;7.70;58.50;;;;;;5061030;28;46464;-62
2022/04/14 02:57:13;;;;;;;31.03;17.13;;;7.80;58.50;;;;;;5066433;28;46348;-64
2022/04/14 02:59:39;;;;;;;29.13;17.77;;;7.90;58.90;;;;;;5082527;28;46533;-63
2022/04/14 03:02:05;;;;;;;22.33;14.30;;;7.90;58.90;;;;;;5084557;28;46455;-65
2022/04/14 03:04:31;;;;;;;27.83;15.00;;;7.80;59.30;;;;;;5057998;28;46322;-64
2022/04/14 03:06:57;;;;;;;25.07;15.23;;;7.80;59.70;;;;;;5064994;28;46433;-64
2022/04/14 03:09:23;;;;;;;27.10;14.90;;;7.70;60.00;;;;;;5064596;28;47993;-65
2022/04/14 03:11:49;;;;;;;28.60;15.60;;;7.60;60.30;;;;;;5065897;28;46465;-63
2022/04/14 03:14:15;;;;;;;28.70;16.03;;;7.60;60.40;;;;;;5084001;28;46582;-64
2022/04/14 03:16:41;;;;;;;26.33;14.33;;;7.70;60.30;;;;;;5058582;28;46997;-63
2022/04/14 03:19:07;;;;;;;24.00;14.90;;;7.80;60.20;;;;;;5059223;28;46451;-64
2022/04/14 03:21:33;;;;;;;24.13;14.40;;;7.80;60.20;;;;;;5065981;28;46458;-64
2022/04/14 03:23:58;;;;;;;28.00;16.00;;;7.80;60.10;;;;;;5057705;28;46528;-64
2022/04/14 03:26:24;;;;;;;25.93;15.57;;;7.90;60.00;;;;;;5084305;28;46475;-63
2022/04/14 03:28:50;;;;;;;26.03;15.00;;;7.90;60.00;;;;;;5065573;28;48094;-64
2022/04/14 03:31:15;;;;;;;24.63;14.20;;;7.90;60.00;;;;;;5084502;28;46424;-64
2022/04/14 03:33:41;;;;;;;28.53;16.67;;;8.00;59.90;;;;;;5058603;28;46574;-64
2022/04/14 03:36:07;;;;;;;31.13;16.57;;;8.00;59.80;;;;;;5059037;28;46503;-64
2022/04/14 03:38:33;;;;;;;26.20;15.43;;;8.10;59.80;;;;;;5062027;28;47749;-63
2022/04/14 03:41:04;;;;;;;29.17;17.10;;;8.20;59.70;;;;;;5057917;28;46490;-63
2022/04/14 03:43:31;;;;;;;30.13;16.90;;;8.20;59.50;;;;;;5065614;28;46699;-64
2022/04/14 03:45:57;;;;;;;29.40;16.70;;;8.30;59.50;;;;;;5083998;28;46281;-64
2022/04/14 03:48:22;;;;;;;30.43;18.50;;;8.40;59.50;;;;;;5065831;28;47689;-64
2022/04/14 03:50:48;;;;;;;28.43;17.60;;;8.50;59.60;;;;;;5059529;28;46416;-64
2022/04/14 03:53:13;;;;;;;31.37;17.93;;;8.50;59.70;;;;;;5055260;28;45870;-63
2022/04/14 03:55:39;;;;;;;34.07;18.27;;;8.60;59.90;;;;;;5065446;28;46592;-65
2022/04/14 03:58:05;;;;;;;31.33;18.07;;;8.60;60.00;;;;;;5057298;28;48126;-63
2022/04/14 04:00:32;;;;;;;32.07;19.87;;;8.70;60.20;;;;;;5065168;28;46346;-63
2022/04/14 04:02:57;;;;;;;28.83;16.47;;;8.80;60.20;;;;;;5057965;28;46446;-64
2022/04/14 04:05:23;;;;;;;30.47;16.93;;;8.80;60.30;;;;;;5055990;28;46556;-64
2022/04/14 04:07:49;;;;;;;28.53;17.07;;;8.80;60.30;;;;;;5079851;28;47908;-63
2022/04/14 04:10:15;;;;;;;28.83;17.03;;;8.90;60.20;;;;;;5065675;28;46434;-63
2022/04/14 04:12:40;;;;;;;26.40;16.50;;;8.90;60.10;;;;;;5065020;28;46476;-62
2022/04/14 04:15:07;;;;;;;25.13;16.07;;;9.00;60.20;;;;;;5083494;28;46373;-63
2022/04/14 04:17:33;;;;;;;24.03;15.03;;;9.00;60.10;;;;;;5057535;28;47791;-65
2022/04/14 04:19:59;;;;;;;23.03;14.30;;;8.90;60.30;;;;;;5053247;28;46682;-64
2022/04/14 04:22:24;;;;;;;25.13;14.07;;;8.90;60.40;;;;;;5065640;28;46401;-63
2022/04/14 04:24:50;;;;;;;22.57;14.40;;;8.90;60.40;;;;;;5064866;28;47130;-63
2022/04/14 04:27:16;;;;;;;25.23;14.80;;;9.00;60.60;;;;;;5083006;28;46964;-63
2022/04/14 04:29:41;;;;;;;22.53;14.10;;;8.90;60.60;;;;;;5057836;28;46433;-64
2022/04/14 04:32:07;;;;;;;22.50;13.70;;;8.90;60.70;;;;;;5050693;28;46410;-64
2022/04/14 04:34:33;;;;;;;20.77;13.90;;;8.90;60.80;;;;;;5065243;28;46352;-64
2022/04/14 04:36:59;;;;;;;23.03;15.00;;;8.90;60.80;;;;;;5061888;28;46645;-63
2022/04/14 04:39:24;;;;;;;20.40;14.07;;;8.90;60.70;;;;;;5082431;28;46493;-64
2022/04/14 04:41:50;;;;;;;23.80;14.00;;;9.00;60.80;;;;;;5061694;28;46415;-63
2022/04/14 04:44:16;;;;;;;24.93;15.10;;;9.00;60.80;;;;;;5065271;28;46350;-64
2022/04/14 04:46:41;;;;;;;22.60;14.73;;;9.00;60.90;;;;;;5064502;28;47359;-62
2022/04/14 04:49:07;;;;;;;27.67;15.50;;;9.00;61.10;;;;;;5053272;28;46520;-63
2022/04/14 04:51:33;;;;;;;22.00;14.40;;;9.10;61.10;;;;;;5065452;28;45861;-64
2022/04/14 04:53:59;;;;;;;27.33;14.80;;;9.10;61.10;;;;;;5064945;28;46417;-63
2022/04/14 04:56:25;;;;;;;22.00;14.53;;;9.20;61.10;;;;;;5064286;28;48303;-64
2022/04/14 04:58:51;;;;;;;25.53;13.23;;;9.20;60.90;;;;;;5062206;28;46450;-64
2022/04/14 05:01:17;;;;;;;27.90;12.77;;;9.30;60.80;;;;;;5051029;28;46256;-63
2022/04/14 05:03:42;;;;;;;20.87;12.80;;;9.40;60.70;;;;;;5053373;28;46377;-63
2022/04/14 05:06:08;;;;;;;29.97;14.10;;;9.50;60.60;;;;;;5053196;28;46485;-63
2022/04/14 05:08:34;;;;;;;22.93;13.37;;;9.50;60.50;;;;;;5064649;28;46724;-64
2022/04/14 05:11:03;;;;;;;22.17;13.40;;;9.60;60.20;;;;;;5063259;28;46620;-63
2022/04/14 05:13:28;;;;;;;18.10;12.77;;;9.70;60.10;;;;;;5052430;28;46359;-64
2022/04/14 05:15:54;;;;;;;24.47;13.53;;;9.70;60.00;;;;;;5059442;28;48784;-63
2022/04/14 05:18:20;;;;;;;24.10;13.03;;;9.80;60.00;;;;;;5055315;28;46390;-63
2022/04/14 05:20:45;;;;;;;23.60;13.50;;;9.90;60.00;;;;;;5083061;28;46438;-64
2022/04/14 05:23:11;;;;;;;24.20;13.57;;;10.00;58.90;;;;;;5040427;28;46947;-64
2022/04/14 05:25:39;;;;;;;16.90;10.97;;;10.20;58.80;;;;;;5056828;28;46588;-65
2022/04/14 05:28:05;;;;;;;17.93;10.57;;;11.20;58.80;;;;;;5055781;28;46381;-63
2022/04/14 05:30:31;;;;;;;13.77;9.90;;;12.10;58.40;;;;;;5054545;28;46392;-63
2022/04/14 05:32:57;;;;;;;19.30;10.03;;;12.90;57.20;;;;;;5064254;28;46485;-64
2022/04/14 05:35:22;;;;;;;16.40;9.07;;;13.60;55.50;;;;;;5053685;28;48072;-64
2022/04/14 05:37:48;;;;;;;16.37;9.50;;;14.30;55.20;;;;;;5082580;28;46338;-64
2022/04/14 05:40:14;;;;;;;17.10;11.27;;;15.00;53.70;;;;;;5081743;28;46453;-64
2022/04/14 05:42:46;;;;;;;14.30;9.83;;;15.50;52.40;;;;;;5057089;28;46579;-64
2022/04/14 05:45:12;;;;;;;12.87;8.27;;;15.90;51.70;;;;;;5063743;28;48656;-64
2022/04/14 05:47:38;;;;;;;15.03;9.67;;;16.30;51.00;;;;;;5064230;28;46923;-64
2022/04/14 05:50:04;;;;;;;12.70;9.00;;;16.70;49.70;;;;;;5063241;28;46363;-64
2022/04/14 05:52:30;;;;;;;15.73;9.20;;;17.10;48.40;;;;;;5063134;28;46289;-65
2022/04/14 05:54:58;;;;;;;12.50;7.97;;;17.50;47.00;;;;;;5062235;28;49018;-64
2022/04/14 05:57:24;;;;;;;11.27;7.07;;;17.90;45.70;;;;;;5063917;28;46476;-63
2022/04/14 05:59:49;;;;;;;14.57;7.73;;;18.30;45.10;;;;;;5064019;28;46466;-64
2022/04/14 06:02:17;;;;;;;10.97;8.37;;;18.60;43.70;;;;;;5063801;28;46513;-64
2022/04/14 06:04:43;;;;;;;14.33;8.53;;;18.90;42.50;;;;;;5063886;28;47983;-64
2022/04/14 06:07:08;;;;;;;14.57;8.17;;;19.00;41.70;;;;;;5063243;28;46350;-64
2022/04/14 06:09:34;;;;;;;17.37;7.73;;;19.30;40.70;;;;;;5063744;28;46346;-65
2022/04/14 06:12:00;;;;;;;10.70;7.50;;;19.50;39.50;;;;;;5056681;28;46489;-65
2022/04/14 06:14:26;;;;;;;16.70;7.37;;;19.80;38.50;;;;;;5058364;28;48230;-64
2022/04/14 06:16:52;;;;;;;13.53;8.37;;;19.90;36.80;;;;;;5057514;28;46505;-65
2022/04/14 06:19:18;;;;;;;16.63;8.00;;;19.90;35.40;;;;;;5058532;28;46488;-65
2022/04/14 06:21:44;;;;;;;19.57;8.50;;;19.40;36.20;;;;;;5078510;28;45933;-65
2022/04/14 06:24:10;;;;;;;17.73;8.90;;;18.50;37.80;;;;;;5060471;28;46399;-64
2022/04/14 06:26:36;;;;;;;11.40;7.97;;;17.90;39.30;;;;;;5062583;28;46635;-64
2022/04/14 06:29:02;;;;;;;13.50;8.10;;;17.30;41.10;;;;;;5063151;28;46390;-64
2022/04/14 06:31:28;;;;;;;11.50;6.90;;;17.00;42.40;;;;;;5063536;28;46453;-63
2022/04/14 06:33:53;;;;;;;10.70;7.73;;;17.30;41.10;;;;;;5062957;28;47511;-64
2022/04/14 06:36:19;;;;;;;19.07;8.50;;;18.30;37.70;;;;;;5062176;28;46374;-64
2022/04/14 06:38:45;;;;;;;11.63;7.40;;;18.40;37.20;;;;;;5063113;28;46398;-63
2022/04/14 06:41:11;;;;;;;11.47;7.40;;;17.90;38.30;;;;;;5080439;28;46594;-62
2022/04/14 06:43:36;;;;;;;15.37;8.97;;;17.40;39.60;;;;;;5063005;28;47271;-64
2022/04/14 06:46:05;;;;;;;15.00;7.73;;;17.10;40.60;;;;;;5054885;28;46338;-63
2022/04/14 06:48:31;;;;;;;14.73;8.40;;;17.00;41.20;;;;;;5063723;28;46440;-63
2022/04/14 06:51:01;;;;;;;16.70;9.40;;;16.90;41.60;;;;;;5063018;28;46538;-64
2022/04/14 06:53:27;;;;;;;14.33;9.90;;;16.90;41.80;;;;;;5061791;28;46438;-64
2022/04/14 06:55:53;;;;;;;14.70;9.30;;;17.00;42.00;;;;;;5063842;28;45854;-64
2022/04/14 06:58:22;;;;;;;18.33;9.50;;;17.00;42.20;;;;;;5063079;28;46458;-64
2022/04/14 07:00:48;;;;;;;15.93;8.57;;;17.00;42.10;;;;;;5063117;28;46508;-63
2022/04/14 07:03:13;;;;;;;12.73;8.40;;;17.10;42.10;;;;;;5063336;28;48014;-63
2022/04/14 07:05:39;;;;;;;14.67;9.03;;;17.00;42.10;;;;;;5083873;28;46385;-63
2022/04/14 07:08:05;;;;;;;14.50;10.03;;;17.10;42.10;;;;;;5064312;28;46489;-63
2022/04/14 07:10:31;;;;;;;14.57;9.03;;;17.10;42.10;;;;;;5083258;28;46398;-63
2022/04/14 07:12:56;;;;;;;19.87;9.27;;;17.10;42.10;;;;;;5065964;28;47922;-63
2022/04/14 07:15:22;;;;;;;18.47;9.17;;;17.30;41.80;;;;;;5084105;28;46365;-64
2022/04/14 07:17:48;;;;;;;17.87;9.97;;;17.40;41.40;;;;;;5065804;28;47198;-63
2022/04/14 07:20:14;;;;;;;22.53;9.37;;;17.60;41.10;;;;;;5065626;28;46489;-63
2022/04/14 07:22:47;;;;;;;20.33;10.53;;;17.70;40.90;;;;;;5083050;28;46371;-63
2022/04/14 07:25:13;;;;;;;21.77;9.80;;;17.80;40.80;;;;;;5056810;28;46528;-64
2022/04/14 07:27:39;;;;;;;19.97;10.10;;;17.90;40.50;;;;;;5065628;28;46391;-65
2022/04/14 07:30:06;;;;;;;18.00;10.37;;;17.90;40.30;;;;;;5065695;28;46380;-64
2022/04/14 07:32:36;;;;;;;17.30;9.70;;;18.00;40.10;;;;;;5064903;28;47890;-64
2022/04/14 07:35:03;;;;;;;15.00;8.90;;;18.10;39.90;;;;;;5064895;28;46574;-64
2022/04/14 07:37:30;;;;;;;22.80;10.50;;;18.10;40.00;;;;;;5061221;28;46398;-64
2022/04/14 07:39:55;;;;;;;17.03;9.93;;;18.30;39.90;;;;;;5053343;28;46358;-63
2022/04/14 07:42:21;;;;;;;21.50;10.40;;;18.40;39.40;;;;;;5065288;28;48196;-64
2022/04/14 07:44:48;;;;;;;16.70;9.40;;;18.60;39.10;;;;;;5053214;28;46441;-64
2022/04/14 07:47:13;;;;;;;16.33;9.60;;;18.70;38.80;;;;;;5065263;28;46533;-65
2022/04/14 07:49:39;;;;;;;17.80;9.63;;;18.70;38.80;;;;;;5084264;28;46389;-64
2022/04/14 07:52:05;;;;;;;14.03;9.30;;;18.90;38.40;;;;;;5064095;28;48013;-65
2022/04/14 07:54:34;;;;;;;16.60;9.37;;;19.00;38.10;;;;;;5065351;28;46566;-64
2022/04/14 07:57:00;;;;;;;19.50;9.97;;;19.00;37.70;;;;;;5064174;28;46511;-63
2022/04/14 07:59:26;;;;;;;15.60;10.07;;;18.90;38.00;;;;;;5047719;28;46497;-64
2022/04/14 08:01:52;;;;;;;17.87;9.40;;;18.90;38.30;;;;;;5064877;28;48196;-64
2022/04/14 08:04:18;;;;;;;13.43;9.10;;;18.90;38.00;;;;;;5064506;28;46422;-63
2022/04/14 08:06:44;;;;;;;17.90;10.53;;;18.90;38.10;;;;;;5064853;28;45859;-64
2022/04/14 08:09:09;;;;;;;20.13;10.20;;;19.00;37.70;;;;;;5062695;28;46350;-64
2022/04/14 08:11:35;;;;;;;17.10;10.47;;;19.20;37.40;;;;;;5065461;28;47495;-64
2022/04/14 08:14:01;;;;;;;16.87;9.20;;;19.40;36.90;;;;;;5063824;28;46501;-64
2022/04/14 08:16:26;;;;;;;18.17;10.40;;;19.50;36.60;;;;;;5065560;28;46390;-65
2022/04/14 08:18:52;;;;;;;20.20;9.70;;;19.50;36.40;;;;;;5081542;28;46596;-64
2022/04/14 08:21:19;;;;;;;22.10;10.87;;;19.60;37.40;;;;;;5065374;28;47834;-63
2022/04/14 08:23:44;;;;;;;21.93;9.70;;;19.60;35.40;;;;;;5053347;28;46482;-64
2022/04/14 08:26:11;;;;;;;24.80;11.03;;;19.80;35.00;;;;;;5064588;28;46408;-63
2022/04/14 08:28:41;;;;;;;21.13;10.50;;;19.80;34.40;;;;;;5065776;28;45875;-64
2022/04/14 08:31:11;;;;;;;19.57;10.20;;;19.90;33.90;;;;;;5081962;28;46223;-63
2022/04/14 08:33:37;;;;;;;20.70;9.90;;;20.00;34.10;;;;;;5056102;28;46398;-63
2022/04/14 08:36:12;;;;;;;21.10;10.50;;;20.00;34.00;;;;;;5064963;28;45975;-63
2022/04/14 08:38:46;;;;;;;18.17;9.70;;;19.90;33.00;;;;;;5058115;28;46395;-64
2022/04/14 08:41:17;;;;;;;19.43;10.47;;;20.00;32.50;;;;;;5082636;28;46994;-65
2022/04/14 08:43:58;;;;;;;18.27;9.60;;;20.20;32.40;;;;;;5058041;28;46401;-64
2022/04/14 08:46:25;;;;;;;28.20;10.73;;;20.10;32.20;;;;;;5062806;28;45879;-63
2022/04/14 08:48:51;;;;;;;18.20;9.13;;;20.10;32.30;;;;;;5064890;28;46648;-64
2022/04/14 08:51:19;;;;;;;22.07;10.60;;;20.30;32.20;;;;;;5064353;28;46656;-63
2022/04/14 08:53:47;;;;;;;20.30;10.10;;;20.40;31.60;;;;;;5056195;28;46512;-64
2022/04/14 08:56:13;;;;;;;30.03;10.80;;;20.40;31.30;;;;;;5056789;28;46471;-66
2022/04/14 08:58:42;;;;;;;26.37;9.90;;;20.50;32.30;;;;;;5083135;28;46365;-65
2022/04/14 09:01:08;;;;;;;16.77;9.27;;;20.70;30.80;;;;;;5065032;28;48761;-64
2022/04/14 09:03:34;;;;;;;21.87;9.97;;;20.80;30.50;;;;;;5064698;28;46603;-64
2022/04/14 09:06:01;;;;;;;17.27;9.73;;;20.80;30.20;;;;;;5063458;28;46478;-63
2022/04/14 09:08:26;;;;;;;22.17;9.80;;;20.80;30.00;;;;;;5061892;28;46405;-64
2022/04/14 09:10:52;;;;;;;20.48;8.63;;;21.00;29.70;;;;;;5063956;28;47927;-65
2022/04/14 09:13:20;;;;;;;17.40;8.17;;;21.30;29.40;;;;;;5063955;28;46844;-64
2022/04/14 09:15:47;;;;;;;22.20;8.47;;;21.50;29.00;;;;;;5082771;28;46315;-65
2022/04/14 09:18:14;;;;;;;15.30;8.10;;;21.70;28.50;;;;;;5064897;28;46376;-64
2022/04/14 09:20:41;;;;;;;18.97;8.43;;;21.70;28.20;;;;;;5079756;28;47904;-64
2022/04/14 09:23:25;;;;;;;18.10;8.73;;;21.70;28.50;;;;;;5063628;28;46456;-63
2022/04/14 09:26:13;;;;;;;19.23;8.07;;;21.60;29.60;;;;;;5078814;28;46713;-64
2022/04/14 09:28:40;;;;;;;17.20;9.03;;;21.70;28.20;;;;;;5064312;28;46531;-64
2022/04/14 09:31:08;;;;;;;15.23;7.77;;;21.90;28.50;;;;;;5064448;28;48689;-62
2022/04/14 09:33:36;;;;;;;17.00;8.07;;;22.00;28.00;;;;;;5082108;28;46446;-61
2022/04/14 09:36:14;;;;;;;16.47;9.27;;;21.80;27.40;;;;;;5064404;28;46371;-62
2022/04/14 09:39:01;;;;;;;24.43;9.10;;;21.60;26.50;;;;;;5053216;28;46454;-62
2022/04/14 09:41:37;;;;;;;24.43;8.93;;;21.50;26.50;;;;;;5051639;28;48021;-62
2022/04/14 09:44:11;;;;;;;23.30;8.97;;;21.60;26.70;;;;;;5057123;28;46414;-62
2022/04/14 09:46:44;;;;;;;24.80;9.97;;;21.60;27.10;;;;;;5060098;28;46460;-63
2022/04/14 09:49:12;;;;;;;16.73;9.00;;;21.50;27.10;;;;;;5058781;28;46411;-62
2022/04/14 09:51:42;;;;;;;16.57;9.20;;;21.20;26.90;;;;;;5063802;28;47853;-64
2022/04/14 09:54:12;;;;;;;19.47;9.70;;;21.20;27.40;;;;;;5059930;28;46476;-63
2022/04/14 09:56:57;;;;;;;26.70;9.37;;;21.30;27.30;;;;;;5060907;28;45766;-64
2022/04/14 09:59:29;;;;;;;16.30;8.23;;;21.60;26.70;;;;;;5062540;28;46577;-62
2022/04/14 10:02:14;;;;;;;16.43;8.37;;;21.90;26.40;;;;;;5081887;28;46421;-61
2022/04/14 10:04:45;;;;;;;22.93;8.27;;;21.80;25.70;;;;;;5054997;28;46397;-63
2022/04/14 10:07:16;;;;;;;16.77;8.23;;;21.80;26.30;;;;;;5061572;28;46389;-62
2022/04/14 10:09:44;;;;;;;17.40;8.60;;;21.80;26.00;;;;;;5053071;28;46203;-62
2022/04/14 10:12:19;;;;;;;19.60;8.87;;;21.80;25.90;;;;;;5061171;28;46580;-63
2022/04/14 10:15:03;;;;;;;12.73;8.00;;;21.90;25.60;;;;;;5049501;28;46462;-63
2022/04/14 10:17:35;;;;;;;15.67;7.90;;;22.10;25.60;;;;;;5063200;28;46467;-62
2022/04/14 10:20:03;;;;;;;18.80;8.57;;;22.10;25.90;;;;;;5061876;28;46534;-61
2022/04/14 10:22:30;;;;;;;17.70;9.40;;;22.20;26.10;;;;;;5062916;28;48188;-61
2022/04/14 10:24:56;;;;;;;15.93;8.57;;;22.60;25.60;;;;;;5079711;28;46440;-63
2022/04/14 10:27:22;;;;;;;18.53;8.80;;;22.60;25.10;;;;;;5061669;28;46441;-63
2022/04/14 10:29:49;;;;;;;15.57;8.63;;;22.50;25.20;;;;;;5063366;28;46366;-63
2022/04/14 10:32:16;;;;;;;15.87;8.53;;;22.50;24.60;;;;;;5063413;28;49040;-62
2022/04/14 10:34:44;;;;;;;19.17;8.03;;;22.50;24.20;;;;;;5051957;28;46407;-63
2022/04/14 10:37:15;;;;;;;14.47;7.70;;;22.30;24.10;;;;;;5064929;28;46460;-63
2022/04/14 10:39:46;;;;;;;15.57;7.70;;;22.20;24.00;;;;;;5084007;28;46310;-64
2022/04/14 10:42:23;;;;;;;19.77;8.90;;;22.50;24.20;;;;;;5084277;28;47212;-63
2022/04/14 10:44:51;;;;;;;16.90;8.07;;;22.40;25.10;;;;;;5067887;28;46405;-64
2022/04/14 10:47:53;;;;;;;15.80;7.10;;;22.30;24.10;;;;;;5068812;28;46425;-62
2022/04/14 10:50:20;;;;;;;13.73;6.63;;;22.10;23.90;;;;;;5067705;28;46463;-61
2022/04/14 10:53:03;;;;;;;15.20;7.90;;;22.40;24.10;;;;;;5065254;28;47315;-64
2022/04/14 10:55:42;;;;;;;15.73;7.40;;;22.90;23.80;;;;;;5066377;28;46377;-63
2022/04/14 10:58:37;;;;;;;24.47;8.43;;;22.90;23.50;;;;;;5053229;28;45816;-62
2022/04/14 11:01:03;;;;;;;17.43;8.40;;;23.00;23.50;;;;;;5064991;28;46552;-62
2022/04/14 11:03:55;;;;;;;15.00;7.70;;;22.70;23.50;;;;;;5066313;28;47811;-63
2022/04/14 11:06:39;;;;;;;12.33;7.00;;;22.60;24.10;;;;;;5053284;28;46418;-64
2022/04/14 11:09:06;;;;;;;17.73;7.20;;;22.40;22.70;;;;;;5060065;28;46478;-64
2022/04/14 11:11:59;;;;;;;15.00;7.40;;;22.30;22.80;;;;;;5065708;28;46304;-64
2022/04/14 11:14:25;;;;;;;13.00;7.20;;;22.30;22.20;;;;;;5079025;28;46403;-62
2022/04/14 11:16:51;;;;;;;12.63;6.47;;;22.40;22.80;;;;;;5064391;28;46412;-64
2022/04/14 11:19:24;;;;;;;11.63;5.33;;;22.70;22.50;;;;;;5066253;28;46403;-63
2022/04/14 11:22:00;;;;;;;13.53;6.10;;;22.50;21.70;;;;;;5060438;28;46458;-63
2022/04/14 11:24:41;;;;;;;12.97;6.30;;;22.50;22.10;;;;;;5065884;28;46363;-62
2022/04/14 11:27:17;;;;;;;21.93;6.37;;;22.40;20.70;;;;;;5058049;28;46669;-64
2022/04/14 11:29:45;;;;;;;9.83;5.87;;;22.40;21.80;;;;;;5066069;28;46472;-62
2022/04/14 11:32:11;;;;;;;13.20;6.10;;;22.30;22.50;;;;;;5066092;28;46331;-64
2022/04/14 11:34:39;;;;;;;16.40;7.30;;;22.20;23.00;;;;;;5066223;28;47764;-64
2022/04/14 11:37:41;;;;;;;15.03;7.03;;;22.40;23.70;;;;;;5065954;28;46463;-64
2022/04/14 11:40:16;;;;;;;12.60;6.57;;;22.40;23.20;;;;;;5064814;28;46442;-65
2022/04/14 11:42:47;;;;;;;11.17;6.53;;;22.40;23.20;;;;;;5054645;28;45915;-63
2022/04/14 11:45:12;;;;;;;10.80;6.33;;;22.50;22.60;;;;;;5065897;28;47655;-64
2022/04/14 11:47:39;;;;;;;11.67;6.80;;;22.30;23.00;;;;;;5083706;27;46375;-65
2022/04/14 11:50:06;;;;;;;8.60;5.60;;;22.30;23.00;;;;;;5066178;28;46496;-64
2022/04/14 11:52:33;;;;;;;13.40;6.00;;;22.30;23.20;;;;;;5065697;28;46403;-63
2022/04/14 11:55:02;;;;;;;13.03;5.80;;;22.30;24.00;;;;;;5081389;28;46390;-63
2022/04/14 11:57:31;;;;;;;13.73;6.20;;;22.20;22.40;;;;;;5051133;28;46413;-64
2022/04/14 12:00:11;;;;;;;11.43;6.30;;;22.10;22.60;;;;;;5084259;28;46308;-64
2022/04/14 12:02:37;;;;;;;11.70;5.60;;;22.10;22.80;;;;;;5065357;28;46489;-63
2022/04/14 12:05:03;;;;;;;10.50;5.37;;;22.20;23.10;;;;;;5083151;28;46412;-65
2022/04/14 12:07:37;;;;;;;11.33;5.30;;;22.20;21.50;;;;;;5061892;28;46434;-65
2022/04/14 12:10:08;;;;;;;9.07;5.27;;;22.10;21.30;;;;;;5080412;28;46374;-63
2022/04/14 12:12:37;;;;;;;11.10;6.30;;;22.20;21.50;;;;;;5065368;28;46027;-64
2022/04/14 12:15:04;;;;;;;10.00;6.10;;;22.20;21.40;;;;;;5064782;28;48555;-63
2022/04/14 12:17:30;;;;;;;18.13;5.83;;;22.10;21.30;;;;;;5065399;28;46413;-63
2022/04/14 12:20:03;;;;;;;14.63;6.60;;;22.10;21.70;;;;;;5065667;28;46337;-63
2022/04/14 12:22:34;;;;;;;12.40;5.87;;;22.00;20.90;;;;;;5066239;28;46141;-64
2022/04/14 12:25:03;;;;;;;16.23;6.70;;;21.80;20.40;;;;;;5065268;28;48577;-64
2022/04/14 12:27:38;;;;;;;14.20;6.10;;;21.70;20.50;;;;;;5064996;28;46426;-63
2022/04/14 12:30:24;;;;;;;10.43;4.73;;;21.90;20.70;;;;;;5083276;28;46402;-63
2022/04/14 12:33:00;;;;;;;15.00;4.33;;;21.80;19.00;;;;;;5053757;28;46433;-65
2022/04/14 12:35:37;;;;;;;11.53;5.53;;;21.80;19.60;;;;;;5064852;28;48830;-63
2022/04/14 12:38:15;;;;;;;10.87;6.10;;;21.80;19.60;;;;;;5065055;28;46433;-64
2022/04/14 12:40:57;;;;;;;16.00;5.93;;;21.80;19.40;;;;;;5065358;28;46556;-62